Time;durP1;ratioP1;P1;durP2;ratioP2;P2;SDS_P1;SDS_P2;PMS_P1;PMS_P2;Temp;Humidity;BMP_temperature;BMP_pressure;BME280_temperature;BME280_humidity;BME280_pressure;Samples;Min_cycle;Max_cycle;Signal;HPM_P1;HPM_P2
2023/01/26 00:00:09;;;;;;;27.20;17.20;;;;;;;3.83;89.16;98681.47;4171235;28;20219;-84
2023/01/26 00:02:15;;;;;;;23.40;16.15;;;;;;;3.83;89.70;98678.91;4173784;28;20209;-84
2023/01/26 00:04:18;;;;;;;27.02;16.92;;;;;;;3.83;89.76;98678.91;4167153;28;20260;-84
2023/01/26 00:06:22;;;;;;;23.13;15.35;;;;;;;3.78;89.65;98676.47;4171288;28;20673;-83
2023/01/26 00:08:25;;;;;;;25.92;15.55;;;;;;;3.79;88.90;98672.16;4172096;28;20237;-83
2023/01/26 00:10:28;;;;;;;26.60;16.48;;;;;;;3.78;90.00;98670.47;4174615;28;20674;-83
2023/01/26 00:12:30;;;;;;;22.20;14.60;;;;;;;3.77;89.24;98661.03;4140572;28;20294;-83
2023/01/26 00:14:48;;;;;;;23.92;14.85;;;;;;;3.78;89.65;98661.00;4174777;28;20245;-84
2023/01/26 00:16:53;;;;;;;24.52;15.23;;;;;;;3.80;90.07;98660.94;4154529;28;20329;-84
2023/01/26 00:18:58;;;;;;;26.75;17.55;;;;;;;3.80;89.66;98663.53;4154581;28;20301;-84
2023/01/26 00:21:02;;;;;;;24.75;15.73;;;;;;;3.81;90.39;98662.63;4142731;28;20614;-83
2023/01/26 00:23:06;;;;;;;25.40;15.63;;;;;;;3.82;89.27;98657.44;4169566;28;20233;-84
2023/01/26 00:25:09;;;;;;;29.77;16.90;;;;;;;3.72;90.42;98647.47;4158622;28;20600;-83
2023/01/26 00:27:12;;;;;;;29.20;17.77;;;;;;;3.69;89.36;98639.81;4142629;28;20250;-84
2023/01/26 00:29:15;;;;;;;27.05;15.80;;;;;;;3.68;89.99;98643.28;4171173;28;20245;-83
2023/01/26 00:31:20;;;;;;;29.13;17.33;;;;;;;3.69;90.59;98634.66;4138817;28;20762;-83
2023/01/26 00:33:23;;;;;;;30.40;17.02;;;;;;;3.69;89.67;98642.41;4169295;28;20248;-84
2023/01/26 00:35:27;;;;;;;30.15;18.13;;;;;;;3.68;90.56;98638.13;4157391;28;20218;-83
2023/01/26 00:37:30;;;;;;;32.42;18.00;;;;;;;3.65;90.05;98635.66;4173772;28;20205;-84
2023/01/26 00:39:33;;;;;;;31.30;18.48;;;;;;;3.65;91.21;98627.91;4137118;28;20212;-84
2023/01/26 00:44:02;;;;;;;30.92;17.30;;;;;;;3.67;90.01;98621.00;4136568;28;20269;-84
2023/01/26 00:46:05;;;;;;;34.13;19.13;;;;;;;3.68;90.73;98614.91;4148721;28;20756;-84
2023/01/26 00:48:10;;;;;;;32.92;18.85;;;;;;;3.70;91.07;98609.72;4152422;28;20207;-84
2023/01/26 00:50:13;;;;;;;33.58;18.95;;;;;;;3.71;90.72;98619.97;4168811;28;20201;-84
2023/01/26 00:52:17;;;;;;;32.65;19.27;;;;;;;3.72;90.56;98624.25;4154297;28;20238;-84
2023/01/26 00:54:20;;;;;;;32.65;19.08;;;;;;;3.72;90.04;98619.09;4152001;28;20714;-83
2023/01/26 00:56:26;;;;;;;31.42;18.52;;;;;;;3.67;89.71;98618.41;4137560;28;20707;-84
2023/01/26 00:58:29;;;;;;;30.90;17.58;;;;;;;3.68;91.25;98622.66;4140950;28;20259;-83
2023/01/26 01:00:34;;;;;;;36.20;19.58;;;;;;;3.63;90.77;98616.81;4155437;28;20306;-84
2023/01/26 01:02:37;;;;;;;33.17;17.92;;;;;;;3.63;90.74;98609.09;4139639;28;20203;-84
2023/01/26 01:04:40;;;;;;;31.40;17.55;;;;;;;3.63;90.29;98606.50;4133737;28;20215;-83
2023/01/26 01:06:43;;;;;;;32.75;20.08;;;;;;;3.65;90.62;98612.44;4137374;28;20210;-84
2023/01/26 01:08:47;;;;;;;32.45;18.10;;;;;;;3.67;90.76;98604.66;4154267;28;20253;-84
2023/01/26 01:10:50;;;;;;;32.78;17.80;;;;;;;3.65;91.56;98609.88;4166869;28;20206;-83
2023/01/26 01:12:53;;;;;;;40.67;20.17;;;;;;;3.66;91.38;98613.31;4142397;28;20246;-83
2023/01/26 01:14:58;;;;;;;39.42;21.50;;;;;;;3.66;91.23;98614.13;4156688;28;20231;-84
2023/01/26 01:17:01;;;;;;;40.10;22.33;;;;;;;3.72;91.20;98613.94;4167394;28;20202;-84
2023/01/26 01:19:04;;;;;;;41.95;22.92;;;;;;;3.69;91.72;98614.03;4153724;28;20735;-84
2023/01/26 01:21:07;;;;;;;33.72;19.83;;;;;;;3.66;90.93;98614.13;4153857;28;20261;-84
2023/01/26 01:23:10;;;;;;;40.05;20.38;;;;;;;3.62;92.07;98615.13;4152221;28;20256;-84
2023/01/26 01:25:15;;;;;;;37.92;18.58;;;;;;;3.61;91.32;98610.88;4166853;28;20222;-83
2023/01/26 01:27:18;;;;;;;38.95;20.35;;;;;;;3.61;92.01;98616.03;4155863;28;20211;-84
2023/01/26 01:29:21;;;;;;;36.97;19.55;;;;;;;3.64;91.02;98609.91;4157890;28;20289;-84
2023/01/26 01:31:24;;;;;;;38.47;18.48;;;;;;;3.65;92.20;98606.47;4151820;28;20576;-84
2023/01/26 01:33:28;;;;;;;37.35;19.23;;;;;;;3.63;91.83;98603.94;4154638;28;20207;-83
2023/01/26 01:35:34;;;;;;;38.22;19.35;;;;;;;3.60;91.83;98600.63;4154435;28;20211;-84
2023/01/26 01:37:37;;;;;;;36.38;18.90;;;;;;;3.59;91.43;98591.19;4159189;28;20206;-83
2023/01/26 01:39:40;;;;;;;36.20;18.48;;;;;;;3.59;91.68;98598.91;4138608;28;20243;-84
2023/01/26 01:41:44;;;;;;;34.42;17.48;;;;;;;3.58;92.08;98600.66;4168763;28;20206;-84
2023/01/26 01:43:47;;;;;;;34.58;17.75;;;;;;;3.59;91.95;98601.50;4173920;28;20210;-83
2023/01/26 01:45:51;;;;;;;33.55;17.83;;;;;;;3.59;92.51;98607.50;4142568;28;20980;-84
2023/01/26 01:47:56;;;;;;;36.75;17.48;;;;;;;3.59;91.24;98589.44;4135914;28;20703;-84
2023/01/26 01:50:03;;;;;;;35.85;18.02;;;;;;;3.58;91.80;98587.78;4171949;28;20740;-83
2023/01/26 01:52:09;;;;;;;36.60;19.48;;;;;;;3.61;91.12;98585.09;4169368;28;20329;-83
2023/01/26 01:54:15;;;;;;;35.97;18.85;;;;;;;3.63;91.79;98593.63;4171963;28;20741;-84
2023/01/26 01:56:20;;;;;;;37.88;18.50;;;;;;;3.64;91.94;98597.03;4155852;28;20211;-84
2023/01/26 01:58:25;;;;;;;34.60;17.85;;;;;;;3.64;91.55;98592.72;4159445;28;20577;-84
2023/01/26 02:00:28;;;;;;;36.50;18.08;;;;;;;3.61;91.52;98590.25;4159513;28;20219;-84
2023/01/26 02:02:35;;;;;;;37.83;18.60;;;;;;;3.63;91.89;98588.47;4153685;28;20710;-84
2023/01/26 02:04:38;;;;;;;36.40;18.17;;;;;;;3.60;91.05;98591.13;4167914;28;20269;-84
2023/01/26 02:06:49;;;;;;;39.65;18.73;;;;;;;3.59;91.78;98592.03;4137141;28;20231;-84
2023/01/26 02:08:54;;;;;;;33.38;17.77;;;;;;;3.59;91.82;98586.88;4155692;28;20206;-84
2023/01/26 02:11:00;;;;;;;32.65;17.50;;;;;;;3.62;91.94;98588.50;4170740;28;20206;-84
2023/01/26 02:13:05;;;;;;;36.08;17.67;;;;;;;3.60;91.71;98583.41;4172922;28;20234;-83
2023/01/26 02:15:10;;;;;;;33.08;17.20;;;;;;;3.60;90.98;98580.81;4153519;28;20289;-84
2023/01/26 02:17:13;;;;;;;32.67;17.13;;;;;;;3.58;91.78;98580.03;4171600;28;20309;-83
2023/01/26 02:19:22;;;;;;;33.90;16.90;;;;;;;3.56;91.71;98580.97;4144301;28;20212;-84
2023/01/26 02:21:25;;;;;;;33.30;17.10;;;;;;;3.58;91.41;98586.91;4153549;28;20222;-83
2023/01/26 02:23:39;;;;;;;29.35;16.17;;;;;;;3.57;91.94;98580.09;4155314;28;20203;-84
2023/01/26 02:25:47;;;;;;;33.90;16.80;;;;;;;3.55;91.57;98575.00;4139761;28;20250;-84
2023/01/26 02:27:52;;;;;;;30.80;17.10;;;;;;;3.57;91.48;98573.19;4160688;28;20337;-84
2023/01/26 02:29:56;;;;;;;30.30;15.55;;;;;;;3.56;91.57;98570.66;4175975;28;20316;-84
2023/01/26 02:31:59;;;;;;;35.45;16.15;;;;;;;3.55;92.81;98569.84;4176583;28;20704;-84
2023/01/26 02:34:02;;;;;;;31.83;16.30;;;;;;;3.55;92.38;98561.22;4140767;28;20210;-83
2023/01/26 02:36:06;;;;;;;29.33;15.25;;;;;;;3.54;92.59;98552.66;4156389;28;20754;-84
2023/01/26 02:38:09;;;;;;;29.88;14.75;;;;;;;3.53;92.30;98552.72;4151531;28;20269;-84
2023/01/26 02:40:18;;;;;;;30.55;15.05;;;;;;;3.50;92.23;98552.81;4156813;28;20297;-84
2023/01/26 02:42:43;;;;;;;26.45;13.77;;;;;;;3.48;92.45;98547.72;4141775;28;20231;-84
2023/01/26 02:44:46;;;;;;;26.20;13.95;;;;;;;3.45;92.50;98549.56;4152765;28;20214;-83
2023/01/26 02:46:49;;;;;;;30.05;15.48;;;;;;;3.43;91.99;98547.03;4152637;28;20314;-83
2023/01/26 02:51:13;;;;;;;27.30;13.85;;;;;;;3.45;92.79;98542.66;4155621;28;20217;-83
2023/01/26 02:53:17;;;;;;;26.00;13.85;;;;;;;3.47;92.01;98537.47;4168949;28;20588;-83
2023/01/26 02:55:23;;;;;;;26.85;14.27;;;;;;;3.47;92.69;98535.75;4151759;28;20203;-84
2023/01/26 02:57:27;;;;;;;26.60;14.20;;;;;;;3.48;91.64;98534.84;4152375;28;20219;-83
2023/01/26 02:59:31;;;;;;;27.10;13.95;;;;;;;3.49;92.43;98528.78;4148530;28;20294;-84
2023/01/26 03:01:35;;;;;;;24.05;13.63;;;;;;;3.47;91.99;98530.59;4164255;28;20199;-83
2023/01/26 03:03:43;;;;;;;29.33;13.63;;;;;;;3.45;91.97;98529.78;4135638;28;20680;-83
2023/01/26 03:05:49;;;;;;;28.77;16.38;;;;;;;3.47;91.94;98525.44;4142131;28;20761;-83
2023/01/26 03:07:52;;;;;;;27.85;15.15;;;;;;;3.47;92.20;98525.44;4152533;28;20632;-83
2023/01/26 03:09:58;;;;;;;29.00;15.15;;;;;;;3.47;91.81;98538.31;4143316;28;20688;-84
2023/01/26 03:12:01;;;;;;;25.45;14.02;;;;;;;3.48;91.90;98521.13;4171658;28;20268;-84
2023/01/26 03:14:04;;;;;;;27.25;15.00;;;;;;;3.47;92.06;98520.28;4158278;28;20776;-83
2023/01/26 03:16:09;;;;;;;27.30;13.75;;;;;;;3.45;91.22;98518.63;4155365;28;20835;-84
2023/01/26 03:27:40;;;;;;;25.70;13.13;;;;;;;3.36;92.39;98508.63;4157400;28;20207;-84
2023/01/26 03:29:43;;;;;;;24.75;12.70;;;;;;;3.35;92.46;98505.22;4154836;28;20207;-84
2023/01/26 03:31:47;;;;;;;24.75;13.23;;;;;;;3.34;92.50;98505.28;4152989;28;21175;-83
2023/01/26 03:33:51;;;;;;;22.63;12.63;;;;;;;3.33;92.18;98509.56;4155824;28;20231;-84
2023/01/26 03:35:54;;;;;;;23.42;12.95;;;;;;;3.32;91.87;98507.91;4142347;28;20223;-83
2023/01/26 03:37:59;;;;;;;23.60;12.93;;;;;;;3.30;92.44;98504.50;4135077;28;21269;-84
2023/01/26 03:56:43;;;;;;;21.05;11.20;;;;;;;3.29;92.63;98522.59;4150664;28;20584;-84
2023/01/26 03:58:52;;;;;;;24.85;12.35;;;;;;;3.29;93.23;98522.59;4150157;28;20325;-83
2023/01/26 04:00:57;;;;;;;22.08;12.32;;;;;;;3.33;92.72;98517.28;4171342;28;20253;-83
2023/01/26 04:10:03;;;;;;;24.15;12.95;;;;;;;3.33;92.13;98517.28;4171544;28;20233;-84
2023/01/26 04:12:09;;;;;;;25.75;12.40;;;;;;;3.35;92.20;98512.09;4156237;28;20231;-83
2023/01/26 04:21:37;;;;;;;25.27;13.55;;;;;;;3.34;92.11;98518.16;4156451;28;20741;-84
2023/01/26 04:23:55;;;;;;;26.20;14.35;;;;;;;3.32;92.10;98515.63;4142533;28;20207;-84
2023/01/26 04:25:58;;;;;;;28.40;14.45;;;;;;;3.31;92.70;98513.94;4142682;28;20210;-84
2023/01/26 04:28:02;;;;;;;32.30;16.27;;;;;;;3.30;92.50;98517.41;4153504;28;20612;-84
2023/01/26 04:30:06;;;;;;;30.90;16.52;;;;;;;3.28;92.07;98515.78;4158506;28;20198;-84
2023/01/26 04:32:10;;;;;;;35.60;15.48;;;;;;;3.27;92.10;98511.50;4159132;28;22239;-84
2023/01/26 04:34:15;;;;;;;26.92;15.70;;;;;;;3.26;91.85;98506.41;4154168;28;20222;-84
2023/01/26 04:36:18;;;;;;;29.08;14.90;;;;;;;3.27;92.66;98502.03;4140503;28;20207;-84
2023/01/26 04:38:25;;;;;;;26.23;14.45;;;;;;;3.25;92.61;98494.41;4155086;28;20234;-84
2023/01/26 04:40:29;;;;;;;27.70;15.15;;;;;;;3.23;92.58;98501.34;4158327;28;20229;-84
2023/01/26 04:42:32;;;;;;;29.40;15.90;;;;;;;3.24;92.54;98500.47;4142320;28;20662;-84
2023/01/26 04:44:37;;;;;;;25.10;14.82;;;;;;;3.22;92.09;98492.78;4137961;28;20206;-84
2023/01/26 04:46:40;;;;;;;27.27;13.90;;;;;;;3.23;92.19;98489.31;4134680;28;20208;-84
2023/01/26 04:48:45;;;;;;;28.70;15.05;;;;;;;3.20;92.48;98497.13;4140619;28;20238;-85
2023/01/26 04:50:53;;;;;;;24.38;14.98;;;;;;;3.25;92.61;98491.84;4139873;28;20662;-84
2023/01/26 04:52:57;;;;;;;29.15;14.88;;;;;;;3.26;92.21;98496.94;4133968;28;20211;-84
2023/01/26 04:55:02;;;;;;;27.45;15.27;;;;;;;3.26;91.31;98498.69;4138008;28;20306;-84
2023/01/26 04:57:07;;;;;;;25.00;14.52;;;;;;;3.25;92.55;98492.69;4148264;28;20306;-84
2023/01/26 04:59:11;;;;;;;33.05;15.95;;;;;;;3.26;91.76;98489.22;4138224;28;20219;-84
2023/01/26 05:01:16;;;;;;;26.88;13.90;;;;;;;3.21;91.90;98496.25;4150442;28;20210;-83
2023/01/26 05:03:19;;;;;;;25.05;12.88;;;;;;;3.18;91.99;98487.78;4150849;28;20760;-84
2023/01/26 05:05:22;;;;;;;26.48;14.77;;;;;;;3.17;91.91;98489.50;4168877;28;20243;-84
2023/01/26 05:07:25;;;;;;;24.40;13.73;;;;;;;3.16;91.74;98493.00;4134066;28;20661;-84
2023/01/26 05:09:28;;;;;;;26.02;14.85;;;;;;;3.16;91.95;98489.56;4158478;28;20306;-84
2023/01/26 05:11:48;;;;;;;25.17;14.07;;;;;;;3.14;92.36;98491.34;4145472;28;20246;-84
2023/01/26 05:14:11;;;;;;;26.77;13.18;;;;;;;3.12;92.28;98493.16;4173423;28;20346;-84
2023/01/26 05:16:30;;;;;;;25.77;14.70;;;;;;;3.11;91.89;98489.75;4138951;28;20207;-83
2023/01/26 05:18:33;;;;;;;24.52;13.60;;;;;;;3.11;92.75;98486.31;4175474;28;20705;-86
2023/01/26 05:20:51;;;;;;;28.00;14.27;;;;;;;3.11;92.17;98483.72;4157187;28;20204;-84
2023/01/26 05:23:00;;;;;;;22.83;12.40;;;;;;;3.10;92.65;98487.22;4173380;28;20205;-83
2023/01/26 05:25:35;;;;;;;24.67;11.73;;;;;;;3.06;92.22;98483.03;4174014;28;20217;-84
2023/01/26 05:27:44;;;;;;;25.38;13.30;;;;;;;3.02;92.07;98484.88;4139965;28;20203;-84
2023/01/26 05:29:49;;;;;;;23.35;12.90;;;;;;;3.01;92.15;98493.50;4158507;28;20220;-83
2023/01/26 05:31:53;;;;;;;24.05;12.73;;;;;;;3.00;91.92;98491.78;4142097;28;20207;-83
2023/01/26 05:33:56;;;;;;;24.38;12.80;;;;;;;3.00;92.23;98496.13;4157281;28;20909;-83
2023/01/26 05:36:03;;;;;;;21.77;13.02;;;;;;;3.01;91.99;98495.25;4158106;28;20210;-84
2023/01/26 05:38:07;;;;;;;21.45;11.30;;;;;;;2.99;92.12;98489.28;4168226;28;20213;-84
2023/01/26 05:40:12;;;;;;;24.40;12.00;;;;;;;3.00;92.60;98496.94;4157636;28;20939;-84
2023/01/26 05:42:16;;;;;;;21.63;11.23;;;;;;;2.97;92.15;98488.50;4140344;28;20216;-83
2023/01/26 05:44:37;;;;;;;21.17;12.50;;;;;;;2.95;91.47;98498.84;4147467;28;20230;-84
2023/01/26 05:46:48;;;;;;;20.92;12.80;;;;;;;2.95;92.03;98493.69;4163015;28;20206;-83
2023/01/26 05:48:51;;;;;;;20.27;10.80;;;;;;;2.97;91.84;98503.94;4159425;28;20728;-84
2023/01/26 05:50:56;;;;;;;21.33;11.40;;;;;;;2.97;91.95;98497.03;4142148;28;20214;-83
2023/01/26 05:53:01;;;;;;;23.23;11.88;;;;;;;2.98;92.41;98503.06;4142176;28;20246;-84
2023/01/26 05:55:07;;;;;;;22.67;11.98;;;;;;;2.97;92.25;98504.78;4171204;28;20779;-84
2023/01/26 05:57:10;;;;;;;19.05;10.77;;;;;;;2.97;92.24;98498.78;4158526;28;20697;-84
2023/01/26 05:59:18;;;;;;;20.58;10.88;;;;;;;2.98;92.44;98508.22;4169251;28;20216;-83
2023/01/26 06:01:23;;;;;;;18.73;10.65;;;;;;;2.98;91.68;98497.91;4158296;28;20246;-84
2023/01/26 06:03:32;;;;;;;19.80;11.23;;;;;;;3.01;91.57;98503.78;4152997;28;20313;-84
2023/01/26 06:05:37;;;;;;;19.60;10.82;;;;;;;3.00;91.60;98502.09;4156654;28;20209;-83
2023/01/26 06:07:48;;;;;;;18.30;11.23;;;;;;;3.02;91.94;98499.47;4171697;28;20697;-84
2023/01/26 06:10:00;;;;;;;18.35;10.43;;;;;;;3.01;91.39;98498.66;4156060;28;20641;-84
2023/01/26 06:12:41;;;;;;;18.45;10.60;;;;;;;3.01;91.95;98495.25;4170547;28;20220;-83
2023/01/26 06:15:12;;;;;;;17.27;9.95;;;;;;;3.04;91.82;98502.88;4145501;28;20318;-84
2023/01/26 06:17:21;;;;;;;18.25;9.15;;;;;;;3.03;91.32;98496.03;4157208;28;20704;-84
2023/01/26 06:19:30;;;;;;;16.73;9.35;;;;;;;3.03;91.15;98494.28;4144104;28;20254;-83
2023/01/26 06:21:35;;;;;;;19.23;10.15;;;;;;;3.04;90.98;98497.72;4159917;28;20203;-82
2023/01/26 06:23:38;;;;;;;16.45;9.20;;;;;;;3.04;90.98;98493.41;4177115;28;20202;-84
2023/01/26 06:25:41;;;;;;;17.40;9.82;;;;;;;3.04;91.01;98495.97;4161410;28;20572;-84
2023/01/26 06:27:44;;;;;;;19.77;10.20;;;;;;;3.06;91.61;98496.75;4156746;28;20664;-85
2023/01/26 06:29:58;;;;;;;16.80;9.52;;;;;;;3.06;90.67;98503.66;4170343;28;20215;-82
2023/01/26 06:32:02;;;;;;;15.30;9.60;;;;;;;3.09;90.75;98496.66;4133818;28;20581;-82
2023/01/26 06:34:07;;;;;;;15.07;9.82;;;;;;;3.09;90.42;98494.09;4158097;28;20223;-82
2023/01/26 06:36:15;;;;;;;15.90;9.55;;;;;;;3.08;91.13;98501.84;4147229;28;20300;-82
2023/01/26 06:38:22;;;;;;;18.45;9.82;;;;;;;3.08;90.60;98499.28;4153023;28;20221;-82
2023/01/26 06:40:25;;;;;;;14.40;8.82;;;;;;;3.09;90.81;98506.13;4155557;28;20217;-85
2023/01/26 06:42:29;;;;;;;18.38;10.15;;;;;;;3.09;90.64;98503.56;4166689;28;20206;-82
2023/01/26 06:44:32;;;;;;;16.40;8.98;;;;;;;3.09;90.61;98503.56;4155229;28;20568;-82
2023/01/26 06:46:35;;;;;;;15.85;9.68;;;;;;;3.08;90.72;98501.84;4154033;28;20242;-83
2023/01/26 06:48:38;;;;;;;17.30;9.30;;;;;;;3.09;90.81;98500.97;4156131;28;20221;-83
2023/01/26 06:50:44;;;;;;;19.60;10.80;;;;;;;3.11;90.22;98504.34;4154539;28;20206;-82
2023/01/26 06:52:48;;;;;;;15.57;9.02;;;;;;;3.11;90.59;98499.19;4158529;28;20333;-83
2023/01/26 06:55:17;;;;;;;17.55;9.80;;;;;;;3.10;90.31;98505.25;4160379;28;20310;-82
2023/01/26 06:57:28;;;;;;;17.30;10.02;;;;;;;3.08;90.49;98494.13;4139790;28;20211;-83
2023/01/26 06:59:45;;;;;;;19.20;9.68;;;;;;;3.09;90.22;98500.97;4158042;28;20280;-82
2023/01/26 07:02:14;;;;;;;14.30;9.05;;;;;;;3.07;89.75;98502.78;4150432;28;20250;-81
2023/01/26 07:04:17;;;;;;;17.90;9.90;;;;;;;2.98;89.68;98495.34;4171160;28;20198;-82
2023/01/26 07:06:22;;;;;;;16.75;9.85;;;;;;;2.94;90.08;98496.31;4152933;28;20265;-82
2023/01/26 07:08:25;;;;;;;14.02;8.38;;;;;;;2.96;89.41;98495.38;4153122;28;20210;-86
2023/01/26 07:10:30;;;;;;;15.75;9.48;;;;;;;2.96;90.10;98494.53;4144588;28;20211;-82
2023/01/26 07:12:40;;;;;;;15.25;8.80;;;;;;;2.95;89.99;98498.00;4171723;28;20255;-82
2023/01/26 07:14:43;;;;;;;17.58;9.35;;;;;;;2.94;90.42;98497.16;4169104;28;20236;-83
2023/01/26 07:16:46;;;;;;;17.25;9.60;;;;;;;2.95;90.33;98498.00;4173541;28;20222;-82
2023/01/26 07:18:50;;;;;;;17.00;9.80;;;;;;;2.97;90.10;98506.53;4155443;28;20241;-82
2023/01/26 07:20:53;;;;;;;18.58;9.52;;;;;;;3.01;90.44;98510.69;4139013;28;20679;-83
2023/01/26 07:22:59;;;;;;;16.85;9.43;;;;;;;3.01;90.43;98521.81;4171512;28;20241;-83
2023/01/26 07:25:02;;;;;;;15.18;9.30;;;;;;;3.02;91.03;98517.50;4140482;28;20216;-83
2023/01/26 07:27:06;;;;;;;15.18;8.43;;;;;;;2.94;90.06;98517.75;4169250;28;20221;-81
2023/01/26 07:29:09;;;;;;;14.90;9.05;;;;;;;2.94;89.60;98519.50;4157056;28;20214;-81
2023/01/26 07:31:12;;;;;;;15.15;9.20;;;;;;;2.97;90.02;98516.81;4133142;28;20703;-81
2023/01/26 07:33:15;;;;;;;14.80;8.85;;;;;;;3.00;90.42;98514.97;4153104;28;24814;-81
2023/01/26 07:35:18;;;;;;;15.70;8.80;;;;;;;3.01;89.68;98518.41;4155849;28;20661;-81
2023/01/26 07:37:21;;;;;;;14.77;9.40;;;;;;;2.97;89.59;98509.94;4152661;28;20210;-81
2023/01/26 07:39:26;;;;;;;14.98;9.63;;;;;;;2.97;89.60;98514.25;4173445;28;20249;-82
2023/01/26 07:41:29;;;;;;;16.63;10.40;;;;;;;2.98;88.79;98514.19;4159313;28;20218;-82
2023/01/26 07:43:34;;;;;;;16.80;9.73;;;;;;;2.96;89.21;98516.00;4138719;28;20215;-82
2023/01/26 07:45:36;;;;;;;16.60;9.40;;;;;;;2.95;90.01;98521.19;4172636;28;20209;-82
2023/01/26 07:47:39;;;;;;;14.13;8.88;;;;;;;2.98;89.21;98510.78;4151734;28;20199;-82
2023/01/26 07:49:42;;;;;;;14.70;8.88;;;;;;;2.99;89.81;98513.31;4170597;28;20566;-82
2023/01/26 07:51:45;;;;;;;18.60;9.57;;;;;;;3.00;90.47;98512.41;4131828;28;20204;-82
2023/01/26 07:53:48;;;;;;;14.45;9.30;;;;;;;3.01;89.76;98515.84;4133037;28;20323;-82
2023/01/26 07:55:53;;;;;;;18.48;9.85;;;;;;;3.03;89.82;98517.47;4135683;28;20223;-82
2023/01/26 07:57:56;;;;;;;18.65;10.15;;;;;;;3.05;89.72;98513.13;4168783;28;20213;-83
2023/01/26 07:59:59;;;;;;;14.70;9.43;;;;;;;3.07;90.21;98513.06;4153844;28;20719;-82
2023/01/26 08:02:02;;;;;;;14.98;9.18;;;;;;;3.09;89.81;98506.97;4174533;28;20212;-82
2023/01/26 08:04:06;;;;;;;15.02;9.05;;;;;;;3.11;90.46;98515.50;4149709;28;20238;-82
2023/01/26 08:06:09;;;;;;;14.68;8.63;;;;;;;3.10;89.95;98515.56;4170721;28;20608;-83
2023/01/26 08:08:18;;;;;;;14.25;7.53;;;;;;;3.13;89.93;98515.41;4157626;28;20210;-83
2023/01/26 08:10:21;;;;;;;13.30;8.38;;;;;;;3.14;89.85;98519.69;4148853;28;20211;-83
2023/01/26 08:12:25;;;;;;;12.43;7.03;;;;;;;3.14;89.62;98519.69;4171328;28;20218;-83
2023/01/26 08:14:28;;;;;;;13.98;8.27;;;;;;;3.15;89.52;98513.66;4169842;28;20320;-82
2023/01/26 08:16:47;;;;;;;12.45;7.72;;;;;;;3.18;89.99;98516.13;4138111;28;20719;-82
2023/01/26 08:18:51;;;;;;;16.13;8.75;;;;;;;3.17;89.29;98509.28;4167338;28;20201;-82
2023/01/26 08:20:54;;;;;;;11.15;7.05;;;;;;;3.19;90.02;98512.66;4140308;28;20204;-82
2023/01/26 08:22:57;;;;;;;13.23;7.95;;;;;;;3.21;89.36;98503.16;4131125;28;20751;-81
2023/01/26 08:25:02;;;;;;;13.90;8.15;;;;;;;3.20;89.65;98504.88;4167812;28;20916;-82
2023/01/26 08:27:05;;;;;;;11.35;6.90;;;;;;;3.21;89.21;98506.56;4143994;28;21215;-82
2023/01/26 08:29:09;;;;;;;11.02;7.13;;;;;;;3.21;88.87;98505.72;4163818;28;20264;-81
2023/01/26 08:31:17;;;;;;;12.30;7.28;;;;;;;3.23;88.83;98498.78;4164719;28;20278;-81
2023/01/26 08:33:20;;;;;;;10.38;6.78;;;;;;;3.24;89.10;98493.59;4149930;28;20226;-81
2023/01/26 08:35:23;;;;;;;10.70;6.72;;;;;;;3.25;88.84;98502.13;4153152;28;20218;-81
2023/01/26 08:37:26;;;;;;;9.88;7.18;;;;;;;3.24;89.23;98501.31;4171246;28;20630;-81
2023/01/26 08:39:29;;;;;;;13.18;8.00;;;;;;;3.25;88.37;98502.13;4152027;28;20928;-81
2023/01/26 08:41:32;;;;;;;11.63;7.90;;;;;;;3.27;89.32;98500.38;4169641;28;20293;-82
2023/01/26 08:43:35;;;;;;;11.07;7.25;;;;;;;3.28;88.62;98503.72;4172112;28;20209;-82
2023/01/26 08:45:40;;;;;;;12.20;8.30;;;;;;;3.30;88.67;98501.94;4165643;28;20203;-81
2023/01/26 08:47:44;;;;;;;10.82;7.22;;;;;;;3.33;89.20;98495.84;4157836;28;20215;-82
2023/01/26 08:49:47;;;;;;;12.23;8.15;;;;;;;3.34;88.49;98500.13;4147302;28;20281;-82
2023/01/26 08:51:50;;;;;;;13.80;8.52;;;;;;;3.35;88.16;98497.50;4169986;28;20206;-82
2023/01/26 08:53:53;;;;;;;15.75;8.30;;;;;;;3.38;87.28;98494.81;4169477;28;20233;-82
2023/01/26 08:55:56;;;;;;;12.07;8.48;;;;;;;3.38;87.50;98486.22;4156405;28;20630;-82
2023/01/26 08:57:59;;;;;;;14.60;8.15;;;;;;;3.37;87.59;98498.28;4156433;28;20294;-82
2023/01/26 09:00:03;;;;;;;14.30;8.20;;;;;;;3.38;87.55;98494.81;4164468;28;21110;-82
2023/01/26 09:02:08;;;;;;;14.43;8.70;;;;;;;3.39;87.66;98486.16;4150189;28;20211;-82
2023/01/26 09:04:12;;;;;;;13.65;8.13;;;;;;;3.40;87.92;98487.88;4170351;28;20210;-82
2023/01/26 09:06:15;;;;;;;14.60;8.68;;;;;;;3.41;86.96;98486.97;4152826;28;20751;-81
2023/01/26 09:08:18;;;;;;;14.52;8.65;;;;;;;3.39;87.13;98493.91;4156186;28;20606;-82
2023/01/26 09:10:21;;;;;;;15.60;8.57;;;;;;;3.37;87.71;98481.97;4155746;28;20317;-82
2023/01/26 09:12:24;;;;;;;15.43;8.85;;;;;;;3.39;87.11;98490.50;4152808;28;20222;-82
2023/01/26 09:14:27;;;;;;;16.50;10.15;;;;;;;3.40;87.44;98487.03;4150614;28;20231;-82
2023/01/26 09:16:30;;;;;;;16.42;9.35;;;;;;;3.43;86.90;98489.50;4171370;28;20221;-82
2023/01/26 09:18:35;;;;;;;15.55;9.75;;;;;;;3.43;86.69;98492.91;4168072;28;20286;-82
2023/01/26 09:20:38;;;;;;;14.82;8.95;;;;;;;3.44;87.11;98494.59;4135500;28;20258;-82
2023/01/26 09:22:42;;;;;;;16.80;9.95;;;;;;;3.47;86.18;98491.06;4155181;28;20199;-82
2023/01/26 09:24:45;;;;;;;15.57;9.20;;;;;;;3.48;87.38;98496.16;4171790;28;20206;-82
2023/01/26 09:26:48;;;;;;;14.38;8.80;;;;;;;3.47;86.71;98493.63;4139114;28;20196;-81
2023/01/26 09:28:51;;;;;;;16.38;8.40;;;;;;;3.48;86.97;98496.16;4167641;28;20202;-81
2023/01/26 09:30:55;;;;;;;14.27;8.80;;;;;;;3.49;86.18;98503.03;4164903;28;20268;-81
2023/01/26 09:32:59;;;;;;;14.52;8.65;;;;;;;3.50;86.95;98501.28;4135952;28;20290;-81
2023/01/26 09:35:03;;;;;;;15.00;9.43;;;;;;;3.53;87.13;98498.59;4166465;28;20309;-82
2023/01/26 09:37:07;;;;;;;16.55;9.35;;;;;;;3.53;86.85;98502.00;4166506;28;20332;-82
2023/01/26 09:39:10;;;;;;;15.10;9.05;;;;;;;3.53;85.55;98501.16;4169441;28;20213;-83
2023/01/26 09:41:32;;;;;;;15.30;10.15;;;;;;;3.55;86.37;98505.38;4153405;28;20229;-83
2023/01/26 09:43:40;;;;;;;14.63;8.73;;;;;;;3.53;85.68;98504.56;4154403;28;20216;-83
2023/01/26 09:45:47;;;;;;;14.40;7.63;;;;;;;3.53;85.61;98506.31;4131820;28;20235;-83
2023/01/26 09:47:58;;;;;;;12.38;7.95;;;;;;;3.51;85.81;98500.38;4169915;28;20206;-83
2023/01/26 09:50:08;;;;;;;14.07;8.27;;;;;;;3.53;85.75;98493.44;4168457;28;20256;-82
2023/01/26 09:52:18;;;;;;;14.57;7.90;;;;;;;3.54;85.27;98500.28;4146122;28;20222;-82
2023/01/26 09:54:26;;;;;;;14.48;8.48;;;;;;;3.51;84.14;98495.22;4151444;28;20202;-82
2023/01/26 09:56:31;;;;;;;13.50;8.88;;;;;;;3.53;85.08;98494.25;4138732;28;20727;-82
2023/01/26 09:58:38;;;;;;;14.77;9.15;;;;;;;3.56;84.98;98499.31;4157167;28;20567;-83
2023/01/26 10:00:46;;;;;;;12.80;7.22;;;;;;;3.55;84.60;98496.78;4152723;28;20304;-82
2023/01/26 10:03:00;;;;;;;14.07;8.85;;;;;;;3.53;85.10;98496.84;4167242;28;20197;-82
2023/01/26 10:05:14;;;;;;;12.68;8.15;;;;;;;3.54;84.12;98493.38;4149689;28;20293;-82
2023/01/26 10:07:17;;;;;;;12.52;8.35;;;;;;;3.45;84.54;98491.13;4136275;28;20199;-82
2023/01/26 10:09:23;;;;;;;15.80;10.90;;;;;;;3.44;84.26;98488.59;4150305;28;20268;-82
2023/01/26 10:11:30;;;;;;;13.77;10.10;;;;;;;3.47;84.46;98494.50;4158764;28;20265;-83
2023/01/26 10:13:34;;;;;;;15.00;9.35;;;;;;;3.53;85.08;98499.41;4136390;28;20645;-82
2023/01/26 10:15:39;;;;;;;14.80;9.93;;;;;;;3.54;85.40;98501.13;4166404;28;20298;-82
2023/01/26 10:17:43;;;;;;;12.70;8.25;;;;;;;3.59;84.56;98488.06;4155620;28;20261;-82
2023/01/26 10:19:50;;;;;;;14.27;9.80;;;;;;;3.59;84.84;98494.06;4154235;28;20744;-82
2023/01/26 10:21:55;;;;;;;15.32;10.00;;;;;;;3.61;85.06;98494.88;4165149;28;20205;-83
2023/01/26 10:24:01;;;;;;;15.48;9.80;;;;;;;3.64;85.49;98492.19;4156387;28;20211;-82
2023/01/26 10:26:12;;;;;;;13.75;8.80;;;;;;;3.59;83.31;98488.91;4159667;28;20663;-82
2023/01/26 10:28:16;;;;;;;16.38;10.07;;;;;;;3.63;84.00;98485.34;4158741;28;21172;-82
2023/01/26 10:30:21;;;;;;;12.25;7.70;;;;;;;3.63;83.47;98490.50;4171051;28;20265;-82
2023/01/26 10:32:24;;;;;;;13.10;8.38;;;;;;;3.64;83.97;98486.16;4154448;28;20292;-82